Time;durP1;ratioP1;P1;durP2;ratioP2;P2;SDS_P1;SDS_P2;PMS_P1;PMS_P2;Temp;Humidity;BMP_temperature;BMP_pressure;BME280_temperature;BME280_humidity;BME280_pressure;Samples;Min_cycle;Max_cycle;Signal;HPM_P1;HPM_P2
2023/08/15 00:01:26;;;;;;;1.33;1.17;;;;;;;23.40;88.90;100614.59;5017583;28;20038;-66
2023/08/15 00:03:53;;;;;;;1.48;0.80;;;;;;;23.33;88.61;100618.34;5012904;28;20084;-65
2023/08/15 00:06:20;;;;;;;3.00;1.35;;;;;;;23.34;88.68;100625.38;5014105;28;20034;-66
2023/08/15 00:08:48;;;;;;;2.42;1.38;;;;;;;23.33;88.54;100629.34;5011932;28;20022;-66
2023/08/15 00:11:13;;;;;;;2.15;1.05;;;;;;;23.32;88.73;100627.03;4997130;28;20084;-66
2023/08/15 00:13:39;;;;;;;2.88;1.38;;;;;;;23.27;88.99;100618.09;5020874;28;20505;-66
2023/08/15 00:16:04;;;;;;;2.22;1.23;;;;;;;23.24;88.63;100616.25;5009619;28;20034;-66
2023/08/15 00:18:30;;;;;;;2.28;1.30;;;;;;;23.20;88.59;100614.81;4998599;28;20397;-66
2023/08/15 00:20:55;;;;;;;1.67;0.85;;;;;;;23.24;88.70;100615.47;5009895;28;20033;-66
2023/08/15 00:23:21;;;;;;;1.00;0.75;;;;;;;23.16;88.45;100609.44;5020327;28;20033;-66
2023/08/15 00:25:46;;;;;;;2.25;1.25;;;;;;;23.15;88.64;100607.13;5010696;28;20088;-66
2023/08/15 00:28:11;;;;;;;1.60;0.93;;;;;;;23.15;88.84;100607.88;5001776;28;20072;-66
2023/08/15 00:30:37;;;;;;;3.13;1.40;;;;;;;23.07;89.07;100600.31;5019901;28;20037;-67
2023/08/15 00:33:02;;;;;;;1.65;1.10;;;;;;;23.02;89.30;100603.59;5014796;28;20068;-66
2023/08/15 00:35:28;;;;;;;1.95;1.08;;;;;;;22.98;89.77;100602.94;5013663;28;20049;-65
2023/08/15 00:37:53;;;;;;;2.65;1.40;;;;;;;22.93;89.50;100600.75;5002335;28;20385;-67
2023/08/15 00:40:19;;;;;;;4.15;1.40;;;;;;;22.82;90.05;100603.06;5004021;28;20517;-66
2023/08/15 00:42:46;;;;;;;1.75;1.25;;;;;;;22.88;90.53;100598.56;5004644;28;20049;-66
2023/08/15 00:45:11;;;;;;;3.42;1.33;;;;;;;22.86;89.99;100592.75;4996617;28;20107;-66
2023/08/15 00:47:37;;;;;;;1.50;1.20;;;;;;;22.87;90.46;100600.53;5013507;28;20163;-67
2023/08/15 00:50:07;;;;;;;1.88;1.13;;;;;;;22.92;90.21;100594.50;5011203;28;20040;-66
2023/08/15 00:52:35;;;;;;;2.30;1.60;;;;;;;22.90;90.34;100587.91;5012090;28;20160;-66
2023/08/15 00:55:03;;;;;;;1.63;1.17;;;;;;;22.96;90.22;100594.38;5016747;28;20112;-66
2023/08/15 00:57:30;;;;;;;1.75;1.30;;;;;;;22.90;90.63;100596.16;4986973;28;20038;-67
2023/08/15 00:59:55;;;;;;;2.10;1.27;;;;;;;22.86;90.83;100590.75;4998579;28;20031;-66
2023/08/15 01:02:21;;;;;;;1.40;1.10;;;;;;;22.93;91.15;100600.75;4997670;28;20531;-66
2023/08/15 01:04:49;;;;;;;2.13;1.30;;;;;;;22.96;90.75;100589.66;5015106;28;20623;-67
2023/08/15 01:07:17;;;;;;;3.90;1.27;;;;;;;22.99;90.43;100588.78;4992556;28;20032;-67
2023/08/15 01:09:43;;;;;;;2.28;1.05;;;;;;;22.97;90.28;100596.69;4981472;28;20053;-66
2023/08/15 01:12:31;;;;;;;11.32;1.50;;;;;;;22.93;90.75;100595.25;5014979;28;20080;-67
2023/08/15 01:15:04;;;;;;;1.20;0.90;;;;;;;22.93;91.60;100595.25;5014601;28;20045;-66
2023/08/15 01:17:44;;;;;;;1.48;1.10;;;;;;;22.91;91.39;100589.44;5011373;28;20059;-67
2023/08/15 01:20:15;;;;;;;2.17;1.55;;;;;;;22.90;91.34;100596.91;5014602;28;20110;-65
2023/08/15 01:22:46;;;;;;;2.58;1.38;;;;;;;22.89;91.40;100591.84;5020395;28;20029;-66
2023/08/15 01:25:12;;;;;;;2.58;1.60;;;;;;;22.88;91.79;100593.06;5012575;28;20037;-67
2023/08/15 01:27:37;;;;;;;4.50;1.95;;;;;;;22.83;92.16;100591.63;5001237;28;20032;-67
2023/08/15 01:30:04;;;;;;;4.13;1.67;;;;;;;22.90;91.80;100590.66;5017588;28;20078;-66
2023/08/15 01:32:40;;;;;;;3.90;2.05;;;;;;;22.88;91.94;100579.34;5012796;28;20049;-67
2023/08/15 01:35:19;;;;;;;3.42;2.03;;;;;;;22.88;92.08;100580.09;5017143;28;20053;-65
2023/08/15 01:37:52;;;;;;;5.20;1.83;;;;;;;22.91;92.47;100567.47;4998584;28;20033;-66
2023/08/15 01:40:20;;;;;;;5.55;1.63;;;;;;;22.89;92.14;100562.41;5012569;28;20037;-67
2023/08/15 01:42:46;;;;;;;1.25;1.08;;;;;;;22.86;92.63;100563.28;5008021;28;20782;-67
2023/08/15 01:45:13;;;;;;;4.68;1.55;;;;;;;22.90;92.62;100583.16;5000696;28;20040;-67
2023/08/15 01:47:38;;;;;;;1.80;1.40;;;;;;;22.82;93.08;100575.59;5013362;28;20117;-66
2023/08/15 01:50:05;;;;;;;3.35;1.40;;;;;;;22.81;93.20;100580.31;4999941;28;20083;-67
2023/08/15 01:52:31;;;;;;;3.95;1.67;;;;;;;22.84;92.94;100581.44;5005932;28;20231;-66
2023/08/15 01:54:56;;;;;;;6.25;1.83;;;;;;;22.86;93.29;100584.50;5001584;28;20041;-68
2023/08/15 01:57:21;;;;;;;1.95;1.30;;;;;;;22.86;92.90;100579.75;5014213;28;20112;-66
2023/08/15 01:59:47;;;;;;;6.43;1.90;;;;;;;22.89;92.57;100578.13;5012437;28;20557;-65
2023/08/15 02:02:12;;;;;;;2.60;1.42;;;;;;;22.85;93.34;100589.22;5014562;28;20032;-67
2023/08/15 02:05:01;;;;;;;2.92;1.75;;;;;;;22.80;93.39;100580.78;5002586;28;20040;-67
2023/08/15 02:07:27;;;;;;;3.30;1.98;;;;;;;22.83;93.47;100580.66;4959999;28;20696;-67
2023/08/15 02:09:52;;;;;;;5.25;1.45;;;;;;;22.85;93.90;100577.47;4968366;28;20058;-67
2023/08/15 02:12:18;;;;;;;5.90;1.65;;;;;;;22.84;94.53;100578.69;4966714;28;20035;-67
2023/08/15 02:14:44;;;;;;;5.40;1.90;;;;;;;22.86;94.72;100579.75;4958893;28;20059;-65
2023/08/15 02:17:10;;;;;;;4.70;1.88;;;;;;;22.85;95.98;100585.69;4944842;28;20047;-66
2023/08/15 02:19:35;;;;;;;3.17;2.05;;;;;;;22.90;95.83;100577.66;4944854;28;20054;-67
2023/08/15 02:22:01;;;;;;;2.35;1.83;;;;;;;22.92;96.01;100579.97;4961801;28;20043;-67
2023/08/15 02:24:26;;;;;;;3.45;2.10;;;;;;;22.88;95.67;100582.84;4963024;28;20094;-65
2023/08/15 02:26:52;;;;;;;4.47;1.83;;;;;;;22.88;95.43;100574.59;4965160;28;20523;-67
2023/08/15 02:29:17;;;;;;;2.78;1.83;;;;;;;22.89;95.52;100570.66;4960061;28;20587;-66
2023/08/15 02:31:47;;;;;;;2.35;1.77;;;;;;;22.88;96.19;100557.38;4954659;28;20038;-66
2023/08/15 02:34:13;;;;;;;3.83;1.95;;;;;;;22.92;96.65;100556.03;4957439;28;20474;-65
2023/08/15 02:36:38;;;;;;;3.25;2.13;;;;;;;22.94;96.90;100544.59;4966050;28;20034;-65
2023/08/15 02:39:04;;;;;;;4.78;2.53;;;;;;;22.87;97.81;100542.06;4967292;28;20656;-65
2023/08/15 02:41:29;;;;;;;2.55;1.65;;;;;;;22.91;97.68;100531.75;4971476;28;20038;-65
2023/08/15 02:43:55;;;;;;;4.55;2.63;;;;;;;22.85;98.30;100519.78;4965379;28;20045;-65
2023/08/15 02:46:20;;;;;;;6.07;2.35;;;;;;;22.84;98.58;100529.25;5011253;28;20117;-65
2023/08/15 02:49:06;;;;;;;4.75;2.65;;;;;;;22.85;98.14;100519.78;4999945;28;20386;-65
2023/08/15 02:51:31;;;;;;;8.43;3.13;;;;;;;22.86;97.71;100513.81;4939393;29;20051;-65
2023/08/15 02:53:57;;;;;;;6.60;2.95;;;;;;;22.86;98.23;100507.59;4931174;29;20435;-65
2023/08/15 02:56:22;;;;;;;4.80;2.25;;;;;;;22.81;98.26;100511.66;4928529;29;20556;-65
2023/08/15 02:58:48;;;;;;;4.10;2.70;;;;;;;22.77;97.79;100513.75;4926698;29;20151;-65
2023/08/15 03:01:13;;;;;;;3.15;2.15;;;;;;;22.75;98.00;100513.41;4932119;29;20052;-65
2023/08/15 03:03:39;;;;;;;4.55;2.65;;;;;;;22.77;97.71;100521.97;4927347;29;20035;-64
2023/08/15 03:06:05;;;;;;;3.80;1.98;;;;;;;22.80;98.11;100518.34;4933075;29;20071;-65
2023/08/15 03:08:31;;;;;;;6.75;2.45;;;;;;;22.82;97.88;100523.41;4941618;29;20047;-65
2023/08/15 03:10:58;;;;;;;4.68;2.08;;;;;;;22.75;98.10;100524.41;4922810;29;20369;-64
2023/08/15 03:13:24;;;;;;;4.15;1.92;;;;;;;22.76;98.35;100536.16;4910407;29;20478;-65
2023/08/15 03:15:52;;;;;;;4.38;2.28;;;;;;;22.75;98.64;100538.13;4923964;29;20531;-65
2023/08/15 03:18:18;;;;;;;4.38;2.10;;;;;;;22.78;98.44;100541.97;4939033;29;20034;-64
2023/08/15 03:20:43;;;;;;;4.68;3.15;;;;;;;22.78;98.17;100548.25;4937595;29;20745;-65
2023/08/15 03:23:11;;;;;;;9.50;2.55;;;;;;;22.74;98.41;100542.09;4919976;29;20036;-65
2023/08/15 03:25:36;;;;;;;4.20;2.25;;;;;;;22.58;100.00;100541.44;4916417;29;20528;-65
2023/08/15 03:28:02;;;;;;;4.60;2.42;;;;;;;22.66;100.00;100554.50;4951434;28;20099;-65
2023/08/15 03:30:27;;;;;;;9.80;2.40;;;;;;;22.67;100.00;100563.50;5004039;28;20034;-66
2023/08/15 03:32:53;;;;;;;3.70;2.35;;;;;;;22.70;100.00;100559.88;4998299;28;20524;-65
2023/08/15 03:35:19;;;;;;;5.38;2.53;;;;;;;22.72;99.44;100563.75;4992770;28;20115;-65
2023/08/15 03:37:45;;;;;;;5.10;1.95;;;;;;;22.71;100.00;100553.16;4994632;28;20054;-64
2023/08/15 03:40:11;;;;;;;3.20;2.25;;;;;;;22.67;100.00;100574.47;4998421;28;20041;-65
2023/08/15 03:42:36;;;;;;;3.13;1.95;;;;;;;22.73;100.00;100572.72;5006064;28;20107;-65
2023/08/15 03:45:02;;;;;;;4.10;2.50;;;;;;;22.74;99.63;100569.56;5023967;22;20044;-65
2023/08/15 03:47:27;;;;;;;7.97;2.40;;;;;;;22.66;100.00;100576.47;5017730;28;20517;-66
2023/08/15 03:49:53;;;;;;;4.75;2.30;;;;;;;22.70;100.00;100588.13;5003633;28;20033;-64
2023/08/15 03:52:18;;;;;;;5.38;2.40;;;;;;;22.74;100.00;100582.53;5021863;28;20033;-66
2023/08/15 03:54:44;;;;;;;3.67;2.25;;;;;;;22.69;100.00;100585.81;5020436;28;20038;-67
2023/08/15 03:57:09;;;;;;;4.85;2.38;;;;;;;22.65;100.00;100585.16;4994098;28;20026;-66
2023/08/15 03:59:35;;;;;;;4.55;2.15;;;;;;;22.69;100.00;100583.81;5029559;28;20033;-66
2023/08/15 04:02:00;;;;;;;3.10;2.15;;;;;;;22.78;100.00;100583.19;4996606;28;20057;-66
2023/08/15 04:04:26;;;;;;;3.13;2.17;;;;;;;22.60;100.00;100566.47;5019735;28;20095;-66
2023/08/15 04:06:51;;;;;;;3.78;2.30;;;;;;;22.63;100.00;100568.34;5001921;28;20021;-66
2023/08/15 04:09:17;;;;;;;4.65;2.53;;;;;;;22.75;100.00;100570.31;5009861;28;20025;-66
2023/08/15 04:11:43;;;;;;;4.72;2.65;;;;;;;22.80;100.00;100573.28;5004369;28;20655;-68
2023/08/15 04:14:08;;;;;;;4.35;2.22;;;;;;;22.85;100.00;100561.75;5011095;28;20053;-66
2023/08/15 04:16:35;;;;;;;3.58;2.10;;;;;;;22.82;100.00;100572.84;4989220;28;20033;-64
2023/08/15 04:19:00;;;;;;;4.32;2.45;;;;;;;22.75;100.00;100575.81;4993999;28;20037;-66
2023/08/15 04:21:26;;;;;;;4.35;2.53;;;;;;;22.82;100.00;100570.13;5008105;28;20382;-65
2023/08/15 04:23:51;;;;;;;3.90;2.45;;;;;;;22.75;100.00;100564.81;5001753;28;20103;-66
2023/08/15 04:26:17;;;;;;;2.92;2.00;;;;;;;22.81;100.00;100555.59;5025374;28;20441;-65
2023/08/15 04:28:43;;;;;;;5.13;2.35;;;;;;;22.62;100.00;100542.88;4988238;28;20076;-66
2023/08/15 04:31:09;;;;;;;5.05;2.42;;;;;;;22.73;100.00;100528.78;5014533;28;20058;-66
2023/08/15 04:33:37;;;;;;;4.65;2.67;;;;;;;22.78;100.00;100525.50;5002498;28;20503;-66
2023/08/15 04:36:03;;;;;;;4.53;2.58;;;;;;;22.85;100.00;100528.78;5006431;28;20086;-66
2023/08/15 04:38:28;;;;;;;5.38;2.33;;;;;;;22.88;100.00;100533.38;4997885;28;20030;-66
2023/08/15 04:40:55;;;;;;;11.65;2.60;;;;;;;22.91;100.00;100529.00;4996778;28;20107;-66
2023/08/15 04:43:20;;;;;;;3.90;2.45;;;;;;;22.88;100.00;100527.16;5005258;28;20117;-66
2023/08/15 04:45:46;;;;;;;4.00;2.70;;;;;;;22.90;100.00;100530.97;4997130;28;20494;-66
2023/08/15 04:48:12;;;;;;;4.55;2.45;;;;;;;22.95;100.00;100549.66;4996687;28;20474;-66
2023/08/15 04:50:38;;;;;;;5.88;2.42;;;;;;;22.97;100.00;100552.75;5012915;28;20536;-66
2023/08/15 04:53:05;;;;;;;2.67;2.03;;;;;;;23.00;100.00;100551.84;4995336;28;20083;-66
2023/08/15 04:55:31;;;;;;;4.18;2.35;;;;;;;23.02;100.00;100549.41;5001061;28;20032;-66
2023/08/15 04:57:57;;;;;;;3.47;2.30;;;;;;;22.99;100.00;100553.06;4990614;28;20026;-66
2023/08/15 05:00:22;;;;;;;4.07;2.65;;;;;;;23.00;100.00;100565.59;4981407;28;20026;-66
2023/08/15 05:02:48;;;;;;;3.55;2.22;;;;;;;23.07;100.00;100581.09;5018256;28;20060;-66
2023/08/15 05:05:18;;;;;;;5.13;2.65;;;;;;;22.97;100.00;100568.44;5012978;28;20075;-66
2023/08/15 05:07:44;;;;;;;4.47;2.80;;;;;;;22.90;100.00;100563.94;5013219;28;20074;-66
2023/08/15 05:10:10;;;;;;;3.40;2.20;;;;;;;22.99;100.00;100568.78;5011355;28;20462;-66
2023/08/15 05:12:38;;;;;;;4.93;2.60;;;;;;;23.05;100.00;100567.75;5009629;28;20368;-66
2023/08/15 05:15:07;;;;;;;4.43;2.45;;;;;;;23.08;100.00;100564.16;5011011;28;20140;-66
2023/08/15 05:17:34;;;;;;;4.82;2.80;;;;;;;23.15;100.00;100563.91;5009007;28;20013;-66
2023/08/15 05:20:01;;;;;;;3.33;2.28;;;;;;;23.19;100.00;100569.28;5000296;28;20033;-66
2023/08/15 05:22:26;;;;;;;3.55;2.47;;;;;;;23.24;100.00;100566.75;5010195;28;20037;-66
2023/08/15 05:24:52;;;;;;;4.20;2.55;;;;;;;23.20;100.00;100568.88;4999039;28;20026;-66
2023/08/15 05:27:21;;;;;;;4.72;2.67;;;;;;;23.19;100.00;100564.56;4998762;28;20041;-66
2023/08/15 05:29:47;;;;;;;3.83;2.45;;;;;;;23.29;100.00;100568.16;4997799;28;20105;-66
2023/08/15 05:32:12;;;;;;;4.78;2.78;;;;;;;23.35;100.00;100582.16;5024387;28;20033;-66
2023/08/15 05:34:38;;;;;;;3.83;2.53;;;;;;;23.29;100.00;100581.91;5007837;28;20041;-66
2023/08/15 05:37:04;;;;;;;6.28;3.08;;;;;;;23.42;100.00;100595.69;5017704;28;20066;-66
2023/08/15 05:39:29;;;;;;;6.32;2.33;;;;;;;23.41;100.00;100594.91;5010559;28;20017;-66
2023/08/15 05:41:55;;;;;;;4.53;3.03;;;;;;;23.42;100.00;100604.69;5026907;28;20132;-66
2023/08/15 05:44:20;;;;;;;6.88;2.58;;;;;;;23.45;100.00;100605.78;5022513;28;20037;-66
2023/08/15 05:46:45;;;;;;;3.28;2.33;;;;;;;23.36;100.00;100603.72;5030324;28;20068;-66
2023/08/15 05:49:11;;;;;;;3.45;2.38;;;;;;;23.57;100.00;100605.75;5025194;28;20037;-66
2023/08/15 05:51:36;;;;;;;3.70;2.47;;;;;;;23.69;99.93;100604.19;5030255;28;20486;-66
2023/08/15 05:54:02;;;;;;;4.97;2.40;;;;;;;23.78;98.91;100604.25;5001123;28;20531;-66
2023/08/15 05:56:27;;;;;;;8.30;2.65;;;;;;;24.02;98.19;100603.41;5028556;28;20080;-64
2023/08/15 05:58:53;;;;;;;4.70;2.63;;;;;;;24.26;97.71;100600.19;5022940;28;20505;-64
2023/08/15 06:01:21;;;;;;;4.65;2.58;;;;;;;24.49;96.35;100600.50;5015868;28;20029;-64
2023/08/15 06:03:46;;;;;;;4.25;2.53;;;;;;;24.54;95.99;100601.91;5022691;28;20033;-64
2023/08/15 06:06:11;;;;;;;6.20;2.38;;;;;;;24.81;94.17;100610.34;5019188;28;20419;-64
2023/08/15 06:08:37;;;;;;;5.22;2.58;;;;;;;24.87;91.77;100614.03;5021526;28;20033;-64
2023/08/15 06:11:02;;;;;;;4.00;2.20;;;;;;;24.76;93.27;100608.91;5024220;28;20034;-64
2023/08/15 06:13:29;;;;;;;5.18;2.38;;;;;;;24.96;92.70;100608.53;5029906;28;20029;-64
2023/08/15 06:15:54;;;;;;;4.82;2.13;;;;;;;25.04;91.80;100610.59;5003143;28;20105;-63
2023/08/15 06:18:40;;;;;;;3.30;2.00;;;;;;;25.31;91.06;100617.38;5029903;28;20459;-65
2023/08/15 06:21:05;;;;;;;2.35;1.42;;;;;;;25.59;90.65;100607.97;4954466;28;20050;-64
2023/08/15 06:23:31;;;;;;;4.30;2.38;;;;;;;25.90;88.74;100614.09;4946401;29;20057;-64
2023/08/15 06:25:56;;;;;;;2.88;2.08;;;;;;;26.14;88.07;100608.75;4934646;29;20139;-64
2023/08/15 06:28:22;;;;;;;6.30;2.00;;;;;;;26.05;86.88;100609.50;4945048;28;20055;-64
2023/08/15 06:30:47;;;;;;;2.40;1.95;;;;;;;25.97;85.59;100613.81;4942712;28;20050;-64
2023/08/15 06:33:13;;;;;;;2.45;1.60;;;;;;;25.81;86.35;100606.59;4952606;28;20058;-64
2023/08/15 06:35:38;;;;;;;3.88;1.88;;;;;;;25.61;87.37;100603.50;4955429;28;20031;-64
2023/08/15 06:38:04;;;;;;;2.03;1.58;;;;;;;25.52;87.91;100611.00;4963270;28;20459;-65
2023/08/15 06:40:31;;;;;;;3.83;2.33;;;;;;;25.30;88.57;100611.09;4949926;28;20037;-65
2023/08/15 06:42:56;;;;;;;3.55;2.08;;;;;;;25.10;89.49;100608.00;4946559;28;20039;-65
2023/08/15 06:45:23;;;;;;;2.92;1.90;;;;;;;25.12;90.38;100607.53;4953125;28;20043;-65
2023/08/15 06:47:49;;;;;;;3.40;1.73;;;;;;;25.15;90.74;100595.56;4956716;28;20122;-63
2023/08/15 06:50:15;;;;;;;3.83;1.73;;;;;;;25.18;90.73;100606.47;4945175;28;20051;-64
2023/08/15 06:52:41;;;;;;;3.22;1.92;;;;;;;25.17;90.88;100617.94;4958197;28;20046;-64
2023/08/15 06:55:06;;;;;;;6.60;1.90;;;;;;;25.22;91.46;100620.13;4940375;28;20532;-64
2023/08/15 06:57:32;;;;;;;3.33;2.05;;;;;;;25.30;91.20;100633.16;4963952;28;20075;-65
2023/08/15 06:59:58;;;;;;;2.55;1.88;;;;;;;25.39;90.24;100635.19;5030804;28;20117;-66
2023/08/15 07:02:23;;;;;;;3.33;1.75;;;;;;;25.37;90.60;100630.13;5024798;28;20191;-66
2023/08/15 07:04:50;;;;;;;2.97;2.00;;;;;;;25.40;91.33;100634.75;5029747;28;20040;-65
2023/08/15 07:07:16;;;;;;;2.17;1.58;;;;;;;25.44;91.04;100637.34;5016319;28;20140;-65
2023/08/15 07:09:42;;;;;;;3.20;1.67;;;;;;;25.48;91.35;100633.22;5027473;28;20135;-65
2023/08/15 07:12:07;;;;;;;3.63;1.88;;;;;;;25.52;91.19;100638.59;5021382;28;20092;-65
2023/08/15 07:14:33;;;;;;;3.85;2.20;;;;;;;25.57;91.32;100640.78;5024221;28;20040;-66
2023/08/15 07:16:58;;;;;;;3.38;1.65;;;;;;;25.54;91.46;100653.47;5008393;28;20514;-65
2023/08/15 07:19:24;;;;;;;3.55;1.95;;;;;;;25.54;91.73;100650.72;5018831;28;20022;-67
2023/08/15 07:21:49;;;;;;;4.30;2.15;;;;;;;25.54;91.13;100652.72;5023496;28;20034;-67
2023/08/15 07:24:17;;;;;;;2.83;1.75;;;;;;;25.55;90.89;100657.00;5007985;28;20037;-67
2023/08/15 07:26:44;;;;;;;2.83;1.90;;;;;;;25.55;90.83;100673.56;5009179;28;20125;-67
2023/08/15 07:29:11;;;;;;;3.22;1.92;;;;;;;25.51;91.62;100676.44;5000877;28;20028;-67
2023/08/15 07:31:36;;;;;;;2.67;1.90;;;;;;;25.53;92.04;100673.25;5027738;28;20434;-66
2023/08/15 07:34:02;;;;;;;2.42;1.70;;;;;;;25.49;92.93;100689.19;5015606;28;20045;-66
2023/08/15 07:36:28;;;;;;;4.60;1.90;;;;;;;25.54;92.27;100680.28;5011800;28;20037;-66
2023/08/15 07:38:53;;;;;;;2.88;1.70;;;;;;;25.52;92.39;100688.25;5028391;28;20383;-66
2023/08/15 07:41:19;;;;;;;2.45;1.48;;;;;;;25.49;92.59;100689.94;5030194;28;20040;-66
2023/08/15 07:43:44;;;;;;;2.90;1.20;;;;;;;25.41;92.13;100677.66;5026420;28;20026;-66
2023/08/15 07:46:10;;;;;;;4.72;2.20;;;;;;;25.42;91.91;100694.97;5025138;28;20120;-66
2023/08/15 07:48:35;;;;;;;1.60;1.50;;;;;;;25.38;92.49;100708.88;5021610;28;20100;-66
2023/08/15 07:51:01;;;;;;;2.55;1.73;;;;;;;25.27;93.60;100716.81;5023682;28;20030;-66
2023/08/15 07:53:26;;;;;;;2.38;1.67;;;;;;;25.21;94.30;100729.66;5006620;28;20318;-66
2023/08/15 07:55:52;;;;;;;2.53;1.98;;;;;;;25.25;94.38;100743.31;5011262;28;20493;-66
2023/08/15 07:58:37;;;;;;;1.80;1.42;;;;;;;25.20;95.10;100730.13;5006790;28;20037;-66
2023/08/15 08:01:03;;;;;;;5.32;1.98;;;;;;;25.25;94.71;100744.06;4929257;29;20139;-67
2023/08/15 08:03:29;;;;;;;3.60;1.90;;;;;;;25.25;93.88;100748.81;4926015;29;20115;-65
2023/08/15 08:05:54;;;;;;;2.97;1.50;;;;;;;25.22;94.34;100750.50;4931201;29;20075;-67
2023/08/15 08:08:20;;;;;;;2.40;1.65;;;;;;;25.17;94.98;100748.31;4932707;29;21011;-65
2023/08/15 08:10:45;;;;;;;3.55;1.90;;;;;;;25.16;95.05;100746.81;4924749;29;20082;-68
2023/08/15 08:13:12;;;;;;;1.90;1.55;;;;;;;25.15;95.58;100759.03;4928382;29;20039;-66
2023/08/15 08:15:38;;;;;;;3.05;2.17;;;;;;;25.13;95.38;100755.97;4932113;29;20054;-66
2023/08/15 08:18:05;;;;;;;2.75;1.67;;;;;;;25.12;95.46;100759.94;4930063;29;20050;-67
2023/08/15 08:20:31;;;;;;;1.98;1.48;;;;;;;25.13;95.88;100772.50;4930689;29;20043;-65
2023/08/15 08:22:56;;;;;;;2.03;1.50;;;;;;;25.08;96.25;100773.09;4929956;29;20039;-66
2023/08/15 08:25:23;;;;;;;4.82;2.10;;;;;;;25.12;95.55;100775.72;4932124;29;20115;-66
2023/08/15 08:27:49;;;;;;;3.85;1.88;;;;;;;25.05;95.83;100776.75;4914776;29;20047;-66
2023/08/15 08:30:20;;;;;;;6.55;1.88;;;;;;;24.94;96.96;100763.38;4931054;29;20071;-65
2023/08/15 08:32:46;;;;;;;3.45;2.05;;;;;;;24.65;97.87;100749.06;4931147;29;20047;-67
2023/08/15 08:35:15;;;;;;;3.55;2.03;;;;;;;24.72;97.48;100745.28;4931944;29;20055;-66
2023/08/15 08:37:41;;;;;;;3.05;2.10;;;;;;;24.82;97.05;100742.16;4963849;28;20417;-66
2023/08/15 08:40:08;;;;;;;5.80;2.00;;;;;;;24.89;97.13;100743.88;5007166;28;20060;-66
2023/08/15 08:42:37;;;;;;;2.75;1.95;;;;;;;24.70;98.45;100734.69;5028567;28;20385;-66
2023/08/15 08:45:03;;;;;;;5.53;1.80;;;;;;;24.56;100.00;100728.94;5013685;28;20405;-66
2023/08/15 08:47:30;;;;;;;2.85;2.05;;;;;;;24.58;100.00;100710.75;5011460;28;20033;-67
2023/08/15 08:49:57;;;;;;;2.38;1.67;;;;;;;24.71;100.00;100699.66;5026163;28;20029;-66
2023/08/15 08:52:24;;;;;;;2.45;1.85;;;;;;;24.64;100.00;100703.41;5023778;28;20068;-66
2023/08/15 08:54:50;;;;;;;3.17;2.00;;;;;;;24.58;100.00;100704.47;5029035;28;20029;-67
2023/08/15 08:57:18;;;;;;;8.25;2.30;;;;;;;24.73;100.00;100713.78;5024596;28;20116;-66
2023/08/15 08:59:45;;;;;;;3.83;2.40;;;;;;;24.81;100.00;100717.81;5026259;28;20029;-66
2023/08/15 09:02:14;;;;;;;3.92;1.88;;;;;;;24.91;100.00;100720.16;5024818;28;20095;-66
2023/08/15 09:04:40;;;;;;;6.15;2.28;;;;;;;25.03;100.00;100721.28;5010993;28;20037;-66
2023/08/15 09:07:06;;;;;;;3.95;2.42;;;;;;;25.08;100.00;100739.25;5021517;28;20571;-67
2023/08/15 09:09:32;;;;;;;7.95;2.20;;;;;;;25.16;100.00;100748.78;5019631;28;20052;-67
2023/08/15 09:11:57;;;;;;;3.03;2.08;;;;;;;25.23;100.00;100760.31;5020122;28;20044;-67
2023/08/15 09:14:23;;;;;;;7.35;1.55;;;;;;;25.24;100.00;100764.59;5021212;28;20041;-67
2023/08/15 09:16:49;;;;;;;3.55;1.90;;;;;;;25.22;100.00;100769.03;5008463;28;20029;-67
2023/08/15 09:19:15;;;;;;;3.22;2.03;;;;;;;25.24;100.00;100780.38;5003823;28;20490;-67
2023/08/15 09:21:44;;;;;;;6.30;2.47;;;;;;;25.28;100.00;100767.22;5012691;28;20025;-66
2023/08/15 09:24:09;;;;;;;5.82;2.53;;;;;;;25.19;100.00;100734.84;5025684;28;20642;-66
2023/08/15 09:26:37;;;;;;;3.92;2.28;;;;;;;25.18;100.00;100703.00;5018992;28;20036;-66
2023/08/15 09:29:03;;;;;;;4.63;2.28;;;;;;;24.99;100.00;100718.66;5003342;28;20113;-67
2023/08/15 09:31:29;;;;;;;3.05;2.20;;;;;;;25.10;100.00;100718.28;5009483;28;20516;-67
2023/08/15 09:33:55;;;;;;;3.05;1.98;;;;;;;25.29;100.00;100735.66;5010913;28;20022;-67
2023/08/15 09:36:23;;;;;;;2.95;2.20;;;;;;;25.36;100.00;100749.94;5024147;28;20060;-67
2023/08/15 09:38:51;;;;;;;4.38;2.03;;;;;;;25.38;100.00;100757.75;5013959;28;20025;-67
2023/08/15 09:41:17;;;;;;;3.75;2.08;;;;;;;25.44;100.00;100745.72;5019357;28;20099;-67
2023/08/15 09:43:53;;;;;;;3.38;2.10;;;;;;;25.55;100.00;100742.56;5009856;28;20100;-67
2023/08/15 09:46:19;;;;;;;2.50;2.00;;;;;;;25.66;100.00;100742.88;5046174;22;20046;-64
2023/08/15 09:48:49;;;;;;;3.83;2.13;;;;;;;25.77;100.00;100743.22;4996515;28;20083;-64
2023/08/15 09:51:17;;;;;;;7.43;2.47;;;;;;;25.72;99.53;100741.06;5011340;28;20044;-65
2023/08/15 09:53:43;;;;;;;3.70;1.70;;;;;;;25.76;99.70;100747.22;5021359;28;20040;-64
2023/08/15 09:56:13;;;;;;;4.22;2.00;;;;;;;25.91;99.38;100759.19;5016030;28;20057;-65
2023/08/15 09:58:39;;;;;;;4.80;2.42;;;;;;;26.19;100.00;100752.50;4988103;28;20071;-64
2023/08/15 10:01:08;;;;;;;3.60;2.42;;;;;;;26.49;99.64;100750.84;4993119;28;20026;-65
2023/08/15 10:03:37;;;;;;;5.05;2.40;;;;;;;26.68;94.02;100752.34;4989380;28;20470;-64
2023/08/15 10:06:04;;;;;;;3.05;1.95;;;;;;;27.12;96.29;100750.75;4991762;28;20049;-65
2023/08/15 10:08:29;;;;;;;6.75;2.40;;;;;;;27.34;91.98;100756.84;5006163;28;20038;-64
2023/08/15 10:10:57;;;;;;;5.40;2.20;;;;;;;27.64;91.86;100749.50;5003671;28;20102;-64
2023/08/15 10:13:29;;;;;;;2.95;1.77;;;;;;;27.88;91.00;100755.03;5005181;28;20033;-65
2023/08/15 10:16:15;;;;;;;2.78;1.63;;;;;;;28.16;90.54;100757.22;5004443;28;20041;-65
2023/08/15 10:19:19;;;;;;;3.58;1.52;;;;;;;28.57;88.98;100754.75;4926368;29;20436;-65
2023/08/15 10:21:52;;;;;;;2.22;1.38;;;;;;;28.80;86.58;100757.44;4907932;29;20047;-64
2023/08/15 10:24:18;;;;;;;3.45;1.88;;;;;;;29.16;83.05;100762.63;4930950;29;20119;-64
2023/08/15 10:26:45;;;;;;;2.05;1.48;;;;;;;29.43;81.36;100769.88;4923064;29;20032;-64
2023/08/15 10:29:10;;;;;;;2.67;1.58;;;;;;;29.61;80.54;100768.88;4938523;29;20090;-65
2023/08/15 10:31:37;;;;;;;2.90;1.58;;;;;;;29.60;78.93;100773.66;4922577;29;20040;-64
2023/08/15 10:34:11;;;;;;;2.40;1.50;;;;;;;29.31;77.48;100771.69;4928188;29;20028;-65
2023/08/15 10:36:41;;;;;;;3.72;1.40;;;;;;;29.23;78.75;100775.34;4936559;29;20126;-65
2023/08/15 10:39:07;;;;;;;1.95;1.33;;;;;;;29.32;78.25;100781.56;4930069;29;20168;-65
2023/08/15 10:41:36;;;;;;;4.72;1.55;;;;;;;29.35;78.31;100782.59;4925749;29;20154;-65
2023/08/15 10:44:06;;;;;;;2.72;1.20;;;;;;;29.26;78.24;100786.28;4927864;29;20031;-64
2023/08/15 10:46:35;;;;;;;2.60;1.67;;;;;;;29.29;77.48;100781.75;4924702;29;20068;-64
2023/08/15 10:49:07;;;;;;;2.10;1.13;;;;;;;29.19;77.14;100775.53;4924083;29;20828;-64
2023/08/15 10:51:34;;;;;;;8.73;1.17;;;;;;;29.12;77.02;100778.69;4916999;29;20040;-66
2023/08/15 10:54:02;;;;;;;2.80;1.77;;;;;;;29.24;77.04;100782.44;4925103;29;20051;-65
2023/08/15 10:56:33;;;;;;;2.22;1.42;;;;;;;29.45;77.03;100777.72;4993524;28;20038;-65
2023/08/15 10:59:05;;;;;;;5.03;1.42;;;;;;;29.80;75.19;100770.19;5005997;28;20042;-65
2023/08/15 11:01:31;;;;;;;3.38;1.30;;;;;;;29.96;74.53;100777.97;5008694;28;20062;-66
2023/08/15 11:03:57;;;;;;;3.45;1.50;;;;;;;29.99;72.72;100777.00;5007602;28;20545;-65
2023/08/15 11:06:23;;;;;;;2.97;1.60;;;;;;;30.11;73.04;100778.69;5013322;28;20025;-65
2023/08/15 11:08:50;;;;;;;1.48;1.30;;;;;;;30.28;70.71;100771.34;4993990;28;20026;-65
2023/08/15 11:11:16;;;;;;;2.30;1.20;;;;;;;30.47;70.11;100782.94;5009755;28;20048;-65
2023/08/15 11:13:46;;;;;;;4.07;1.30;;;;;;;30.06;71.25;100784.94;4989072;28;20029;-68
2023/08/15 11:16:17;;;;;;;2.88;1.63;;;;;;;29.74;71.99;100777.66;5007763;28;20086;-66
2023/08/15 11:18:43;;;;;;;2.30;1.40;;;;;;;29.64;73.95;100782.56;4982672;28;20495;-66
2023/08/15 11:21:11;;;;;;;1.65;1.40;;;;;;;29.68;73.89;100782.34;5001193;28;20026;-66